Time;durP1;ratioP1;P1;durP2;ratioP2;P2;SDS_P1;SDS_P2;PMS_P1;PMS_P2;Temp;Humidity;BMP_temperature;BMP_pressure;BME280_temperature;BME280_humidity;BME280_pressure;Samples;Min_cycle;Max_cycle;Signal;HPM_P1;HPM_P2
2023/01/28 00:01:10;;;;;;;1.00;1.00;;;;;;;-2.34;100.00;99895.97;5046798;28;20057;-87
2023/01/28 00:03:38;;;;;;;0.90;0.90;;;;;;;-2.35;100.00;99896.97;5054214;28;20041;-87
2023/01/28 00:06:09;;;;;;;0.82;0.82;;;;;;;-2.28;100.00;99891.94;5037690;28;20057;-86
2023/01/28 00:08:36;;;;;;;1.00;1.00;;;;;;;-2.25;100.00;99895.16;5016726;28;20050;-87
2023/01/28 00:11:05;;;;;;;0.95;0.95;;;;;;;-2.26;100.00;99892.66;5033581;28;20053;-87
2023/01/28 00:13:33;;;;;;;1.10;1.10;;;;;;;-2.29;100.00;99891.13;5033811;28;20045;-88
2023/01/28 00:16:03;;;;;;;0.90;0.90;;;;;;;-2.30;100.00;99891.28;5035274;28;20505;-88
2023/01/28 00:18:31;;;;;;;0.95;0.95;;;;;;;-2.27;100.00;99890.97;5035152;28;20528;-87
2023/01/28 00:21:06;;;;;;;0.98;0.98;;;;;;;-2.24;100.00;99883.59;5015538;28;20045;-87
2023/01/28 00:23:34;;;;;;;;;;;;;;;-2.26;100.00;99890.00;5033609;28;20065;-87
2023/01/28 00:26:03;;;;;;;0.90;0.90;;;;;;;-2.26;100.00;99896.13;5032955;28;20011;-87
2023/01/28 00:28:31;;;;;;;0.82;0.82;;;;;;;-2.26;100.00;99890.00;5033281;28;20041;-87
2023/01/28 00:30:58;;;;;;;1.00;1.00;;;;;;;-2.22;100.00;99891.41;5103367;23;20152;-90
2023/01/28 00:33:28;;;;;;;1.00;1.00;;;;;;;-2.22;100.00;99894.03;5033303;28;20064;-90
2023/01/28 00:36:02;;;;;;;0.90;0.90;;;;;;;-2.19;100.00;99891.09;5015367;28;20120;-88
2023/01/28 00:38:29;;;;;;;0.90;0.90;;;;;;;-2.21;100.00;99895.69;4983383;28;20076;-88
2023/01/28 00:41:15;;;;;;;0.90;0.90;;;;;;;-2.26;100.00;99896.13;4970032;28;20049;-88
2023/01/28 00:43:45;;;;;;;0.90;0.90;;;;;;;-2.26;100.00;99892.66;4983078;28;20069;-87
2023/01/28 00:46:30;;;;;;;0.83;0.83;;;;;;;-2.23;100.00;99898.50;4987244;28;20073;-88
2023/01/28 00:49:02;;;;;;;0.98;0.98;;;;;;;-2.24;100.00;99896.81;4985364;28;20055;-87
2023/01/28 00:51:42;;;;;;;0.85;0.85;;;;;;;-2.23;100.00;99900.28;5031557;28;20566;-88
2023/01/28 00:54:16;;;;;;;1.00;1.00;;;;;;;-2.26;100.00;99901.41;4947271;28;20620;-88
2023/01/28 00:56:47;;;;;;;0.90;0.90;;;;;;;-2.27;100.00;99902.38;4962677;28;20053;-86
2023/01/28 00:59:20;;;;;;;0.90;0.90;;;;;;;-2.31;100.00;99903.63;4964015;28;20583;-87
2023/01/28 01:01:51;;;;;;;0.90;0.90;;;;;;;-2.30;100.00;99902.69;4947902;28;20069;-86
2023/01/28 01:04:26;;;;;;;0.90;0.90;;;;;;;-2.29;100.00;99903.50;4964905;28;20042;-86
2023/01/28 01:06:55;;;;;;;0.80;0.80;;;;;;;-2.31;100.00;99906.28;4980298;28;20101;-87
2023/01/28 01:09:26;;;;;;;1.00;1.00;;;;;;;-2.31;100.00;99908.91;4995748;28;20054;-87
2023/01/28 01:12:02;;;;;;;0.82;0.82;;;;;;;-2.36;100.00;99908.50;4962810;28;20160;-87
2023/01/28 01:14:33;;;;;;;1.00;1.00;;;;;;;-2.39;100.00;99914.06;4950891;29;20051;-86
2023/01/28 01:17:08;;;;;;;1.00;1.00;;;;;;;-2.40;100.00;99905.31;4950976;29;20051;-86
2023/01/28 01:19:42;;;;;;;0.80;0.80;;;;;;;-2.45;100.00;99907.53;4951121;29;20055;-86
2023/01/28 01:22:10;;;;;;;0.93;0.93;;;;;;;-2.47;100.00;99909.50;4919746;29;20442;-87
2023/01/28 01:24:47;;;;;;;1.00;1.00;;;;;;;-2.49;100.00;99902.66;4919453;29;20062;-88
2023/01/28 01:27:18;;;;;;;1.00;1.00;;;;;;;-2.49;100.00;99905.31;4950852;29;20047;-87
2023/01/28 01:29:45;;;;;;;0.85;0.85;;;;;;;-2.53;100.00;99901.25;4935178;29;20099;-86
2023/01/28 01:32:12;;;;;;;0.93;0.93;;;;;;;-2.53;100.00;99903.91;4935242;29;20087;-88
2023/01/28 01:34:39;;;;;;;0.90;0.90;;;;;;;-2.58;100.00;99900.84;4951466;29;20070;-88
2023/01/28 01:37:07;;;;;;;0.90;0.90;;;;;;;-2.57;100.00;99902.53;4952419;29;20057;-87
2023/01/28 01:39:35;;;;;;;0.90;0.90;;;;;;;-2.64;100.00;99897.78;4952550;28;20070;-87
2023/01/28 01:42:02;;;;;;;0.80;0.80;;;;;;;-2.62;100.00;99905.59;4952321;28;20051;-86
2023/01/28 01:44:56;;;;;;;0.90;0.90;;;;;;;-2.68;100.00;99896.41;4973628;28;20046;-86
2023/01/28 01:47:43;;;;;;;1.00;1.00;;;;;;;-2.72;100.00;99902.09;5010768;28;20061;-88
2023/01/28 01:50:31;;;;;;;0.90;0.90;;;;;;;-2.67;100.00;99903.34;4994245;28;20540;-88
2023/01/28 01:53:12;;;;;;;0.80;0.80;;;;;;;-2.72;99.91;99892.34;4994211;28;20042;-87
2023/01/28 01:55:42;;;;;;;1.00;1.00;;;;;;;-2.75;99.98;99897.91;4993989;28;20502;-88
2023/01/28 01:58:12;;;;;;;0.90;0.90;;;;;;;-2.80;99.94;99889.56;5011460;28;20054;-87
2023/01/28 02:00:41;;;;;;;0.90;0.90;;;;;;;-2.77;99.94;99894.56;4977984;28;20100;-85
2023/01/28 02:03:09;;;;;;;0.98;0.98;;;;;;;-2.80;99.75;99892.22;4993903;28;20053;-87
2023/01/28 02:05:36;;;;;;;1.00;1.00;;;;;;;-2.79;99.87;99893.03;5010144;28;20559;-87
2023/01/28 02:08:22;;;;;;;0.80;0.80;;;;;;;-2.83;99.90;99893.31;4993650;28;20082;-87
2023/01/28 02:10:53;;;;;;;0.90;0.90;;;;;;;-2.85;99.79;99894.44;5011538;28;20060;-88
2023/01/28 02:13:23;;;;;;;0.90;0.90;;;;;;;-2.91;99.74;99900.25;4993698;28;20053;-88
2023/01/28 02:15:51;;;;;;;0.82;0.82;;;;;;;-2.90;99.97;99902.75;4990951;28;20420;-88
2023/01/28 02:18:18;;;;;;;0.80;0.80;;;;;;;-2.86;99.95;99903.31;4974944;28;20065;-87
2023/01/28 02:20:45;;;;;;;0.90;0.90;;;;;;;-2.81;99.96;99905.53;4993463;28;20050;-87
2023/01/28 02:23:34;;;;;;;1.00;1.00;;;;;;;-2.76;100.00;99908.63;4974383;28;20069;-86
2023/01/28 02:26:04;;;;;;;1.00;1.00;;;;;;;-2.79;100.00;99907.09;4974170;28;20050;-86
2023/01/28 02:28:51;;;;;;;0.90;0.90;;;;;;;-2.76;100.00;99906.84;4974498;28;20049;-86
2023/01/28 02:31:23;;;;;;;0.77;0.77;;;;;;;-2.77;100.00;99910.44;4976092;28;20058;-87
2023/01/28 02:34:03;;;;;;;1.00;1.00;;;;;;;-2.74;100.00;99914.59;4974212;28;20050;-87
2023/01/28 02:36:40;;;;;;;0.82;0.82;;;;;;;-2.75;99.88;99911.13;4991639;28;20051;-88
2023/01/28 02:39:18;;;;;;;0.98;0.98;;;;;;;-2.81;99.71;99914.34;4974230;28;20417;-88
2023/01/28 02:41:52;;;;;;;1.00;1.00;;;;;;;-2.84;99.49;99920.72;4958145;28;20125;-88
2023/01/28 02:44:20;;;;;;;0.90;0.90;;;;;;;-2.87;99.51;99917.50;4958536;28;20050;-88
2023/01/28 02:49:45;;;;;;;0.90;0.90;;;;;;;-2.87;99.34;99923.63;4982034;28;20674;-87
2023/01/28 02:55:22;;;;;;;;;;;;;;;-2.97;99.16;99928.03;4994698;28;19933;-88
2023/01/28 02:58:25;;;;;;;0.90;0.90;;;;;;;-2.98;99.00;99936.94;4994767;28;19995;-87
2023/01/28 03:01:00;;;;;;;0.90;0.90;;;;;;;-2.99;98.81;99929.16;4994500;28;20046;-88
2023/01/28 03:03:51;;;;;;;1.00;1.00;;;;;;;-2.96;98.66;99937.66;4994857;28;20054;-88
2023/01/28 03:06:22;;;;;;;0.88;0.88;;;;;;;-2.92;98.51;99935.56;5011915;28;20053;-87
2023/01/28 03:37:51;;;;;;;0.90;0.90;;;;;;;-3.10;97.45;99959.97;5011535;28;20057;-87
2023/01/28 03:40:22;;;;;;;0.90;0.90;;;;;;;-3.04;97.69;99950.66;5034864;28;20050;-89
2023/01/28 03:42:51;;;;;;;0.80;0.80;;;;;;;-3.02;97.85;99945.25;4999803;28;20057;-89
2023/01/28 03:45:32;;;;;;;0.90;0.90;;;;;;;-3.02;97.58;99945.25;5015124;28;20046;-89
2023/01/28 03:48:02;;;;;;;0.95;0.95;;;;;;;-3.06;97.76;99948.19;4992548;28;20045;-89
2023/01/28 03:50:30;;;;;;;1.00;1.00;;;;;;;-3.05;97.48;99941.09;4995441;28;20422;-88
2023/01/28 03:53:10;;;;;;;1.00;1.00;;;;;;;-3.02;97.51;99953.19;4960565;28;20485;-87
2023/01/28 03:55:48;;;;;;;0.93;0.93;;;;;;;-3.05;97.25;99947.19;4983210;28;20056;-89
2023/01/28 03:58:16;;;;;;;0.90;0.90;;;;;;;-3.06;97.15;99945.53;4996458;28;20092;-87
2023/01/28 04:00:45;;;;;;;0.70;0.70;;;;;;;-3.05;97.28;99941.09;4995973;28;20054;-87
2023/01/28 04:03:15;;;;;;;0.93;0.93;;;;;;;-3.05;97.21;99939.28;4996296;28;20108;-88
2023/01/28 04:06:03;;;;;;;1.00;1.00;;;;;;;-3.07;97.20;99943.84;4996216;28;20046;-87
2023/01/28 04:08:58;;;;;;;1.00;1.00;;;;;;;-3.12;96.95;99943.41;4995863;28;20108;-87
2023/01/28 04:11:37;;;;;;;0.95;0.95;;;;;;;-3.15;96.92;99943.69;5014352;28;20054;-88
2023/01/28 04:14:06;;;;;;;1.00;1.00;;;;;;;-3.14;96.98;99942.75;4996318;28;20417;-89
2023/01/28 04:16:48;;;;;;;0.90;0.90;;;;;;;-3.14;96.81;99945.38;4996167;28;20141;-88
2023/01/28 04:19:15;;;;;;;0.90;0.90;;;;;;;-3.17;96.79;99950.91;4996698;28;20050;-87
2023/01/28 04:21:43;;;;;;;0.90;0.90;;;;;;;-3.23;96.92;99942.69;4996594;28;20108;-87
2023/01/28 04:24:10;;;;;;;0.80;0.80;;;;;;;-3.20;96.95;99948.53;4996044;28;20129;-88
2023/01/28 04:26:38;;;;;;;1.00;1.00;;;;;;;-3.22;96.81;99949.63;5012889;28;20156;-87
2023/01/28 04:29:05;;;;;;;1.00;1.00;;;;;;;-3.21;96.85;99948.69;4995612;28;20050;-87
2023/01/28 04:31:34;;;;;;;0.75;0.75;;;;;;;-3.27;96.76;99947.38;5012339;28;20066;-88
2023/01/28 04:34:16;;;;;;;1.00;1.00;;;;;;;-3.29;96.85;99949.34;4982185;28;20120;-88
2023/01/28 04:36:51;;;;;;;1.00;1.00;;;;;;;-3.25;96.88;99957.84;5013089;28;20108;-89
2023/01/28 04:39:41;;;;;;;0.90;0.90;;;;;;;-3.30;96.63;99960.88;4936358;29;20120;-88
2023/01/28 04:42:15;;;;;;;0.90;0.90;;;;;;;-3.32;96.57;99963.66;4930811;29;20147;-88
2023/01/28 04:44:59;;;;;;;0.90;0.90;;;;;;;-3.38;96.71;99965.97;4904298;29;20530;-89
2023/01/28 04:47:56;;;;;;;0.70;0.70;;;;;;;-3.40;96.74;99958.19;4899703;29;20047;-87
2023/01/28 04:50:49;;;;;;;0.80;0.80;;;;;;;-3.35;96.89;99963.06;4914385;29;20051;-88
2023/01/28 04:53:33;;;;;;;0.95;0.95;;;;;;;-3.35;96.91;99958.63;4898982;29;20048;-88
2023/01/28 04:56:06;;;;;;;0.80;0.80;;;;;;;-3.35;96.75;99963.06;4905430;29;20145;-88
2023/01/28 04:58:35;;;;;;;0.80;0.80;;;;;;;-3.40;96.72;99962.63;4921920;29;20052;-86
2023/01/28 05:01:05;;;;;;;0.80;0.80;;;;;;;-3.39;97.03;99956.38;4920786;29;20155;-88
2023/01/28 05:03:34;;;;;;;0.90;0.90;;;;;;;-3.40;97.08;99962.63;4564966;29;10000684;-84
2023/01/28 05:06:04;;;;;;;0.82;0.82;;;;;;;-3.39;97.09;99962.50;4904068;29;20456;-87
2023/01/28 05:08:41;;;;;;;1.02;1.02;;;;;;;-3.38;96.65;99966.81;4913252;29;20059;-88
2023/01/28 05:11:08;;;;;;;0.98;0.98;;;;;;;-3.36;96.69;99970.16;4915534;29;20119;-85
2023/01/28 05:13:35;;;;;;;0.90;0.90;;;;;;;-3.37;96.49;99963.19;4903361;29;20055;-86
2023/01/28 05:16:05;;;;;;;0.80;0.80;;;;;;;-3.33;96.59;99969.06;4923330;28;20738;-89
2023/01/28 05:18:32;;;;;;;0.85;0.85;;;;;;;-3.39;96.33;99966.91;5008841;28;20076;-89
2023/01/28 05:21:06;;;;;;;0.88;0.88;;;;;;;-3.42;96.44;99970.66;4990250;28;20424;-87
2023/01/28 05:23:35;;;;;;;0.90;0.90;;;;;;;-3.43;96.50;99973.44;4989432;28;20073;-88
2023/01/28 05:26:02;;;;;;;0.93;0.93;;;;;;;-3.41;96.27;99976.81;4998772;28;20598;-88
2023/01/28 05:28:30;;;;;;;0.80;0.80;;;;;;;-3.40;96.29;99976.66;4976433;28;20069;-88
2023/01/28 05:31:02;;;;;;;0.90;0.90;;;;;;;-3.38;96.13;99980.00;4991395;28;20061;-88
2023/01/28 05:33:29;;;;;;;0.80;0.80;;;;;;;-3.36;96.06;99979.88;4991677;28;20426;-87
2023/01/28 05:35:57;;;;;;;0.90;0.90;;;;;;;-3.44;95.66;99972.63;4991092;28;20133;-86
2023/01/28 05:38:24;;;;;;;0.80;0.80;;;;;;;-3.41;95.73;99982.91;4980244;28;20078;-87
2023/01/28 05:40:51;;;;;;;1.00;1.00;;;;;;;-3.41;95.83;99982.06;5000153;28;20054;-86
2023/01/28 05:43:18;;;;;;;0.68;0.68;;;;;;;-3.42;95.98;99965.38;5005706;28;20050;-86
2023/01/28 05:46:11;;;;;;;0.75;0.75;;;;;;;-3.38;95.63;99976.53;4997842;28;20069;-88
2023/01/28 05:48:56;;;;;;;;;;;;;;;-3.44;95.51;99982.31;5007508;28;20053;-87
2023/01/28 05:51:47;;;;;;;0.75;0.75;;;;;;;-3.48;95.40;99981.75;4982587;28;20363;-85
2023/01/28 05:54:18;;;;;;;0.88;0.88;;;;;;;-3.44;95.32;99983.19;4988331;28;20058;-86
2023/01/28 05:56:47;;;;;;;0.95;0.95;;;;;;;-3.50;95.28;99973.97;4986868;28;20042;-89
2023/01/28 05:59:15;;;;;;;0.75;0.75;;;;;;;-3.47;95.30;99983.41;4987399;28;20756;-87
2023/01/28 06:01:44;;;;;;;1.08;1.08;;;;;;;-3.48;95.24;99976.47;4971002;28;20065;-88
2023/01/28 06:04:12;;;;;;;0.90;0.90;;;;;;;-3.47;95.09;99985.22;4987900;28;20084;-86
2023/01/28 06:06:39;;;;;;;0.90;0.90;;;;;;;-3.49;95.06;99985.38;4990175;28;20062;-87
2023/01/28 06:09:06;;;;;;;0.70;0.70;;;;;;;-3.46;95.18;99984.28;4994671;28;20589;-86
2023/01/28 06:11:34;;;;;;;0.90;0.90;;;;;;;-3.53;95.13;99982.13;5010652;28;20128;-86
2023/01/28 06:14:03;;;;;;;1.00;1.00;;;;;;;-3.49;95.11;99986.19;5009906;28;20053;-87
2023/01/28 06:16:51;;;;;;;0.90;0.90;;;;;;;-3.52;94.95;99991.75;5011618;28;20638;-87
2023/01/28 06:19:36;;;;;;;0.80;0.80;;;;;;;-3.52;94.88;99999.66;5012203;28;20049;-86
2023/01/28 06:22:05;;;;;;;0.88;0.88;;;;;;;-3.55;94.52;99996.44;4994625;28;20053;-88
2023/01/28 06:24:32;;;;;;;0.85;0.85;;;;;;;-3.53;94.46;99999.78;5010553;28;20472;-86
2023/01/28 06:26:59;;;;;;;0.68;0.68;;;;;;;-3.53;94.88;100000.63;5013290;28;20046;-87
2023/01/28 06:29:26;;;;;;;1.05;1.05;;;;;;;-3.50;94.83;99995.06;5011266;28;20058;-88
2023/01/28 06:31:54;;;;;;;0.77;0.77;;;;;;;-3.46;94.47;99992.19;4978117;28;20433;-87
2023/01/28 06:34:21;;;;;;;0.80;0.80;;;;;;;-3.50;94.06;99995.06;4994326;28;20042;-85
2023/01/28 06:36:49;;;;;;;0.60;0.60;;;;;;;-3.51;94.20;99990.78;4993928;28;20058;-86
2023/01/28 06:39:16;;;;;;;1.00;1.00;;;;;;;-3.50;94.14;99989.78;5011505;28;20460;-87
2023/01/28 06:41:43;;;;;;;0.70;0.70;;;;;;;-3.59;94.00;99977.41;5010976;28;20050;-89
2023/01/28 06:44:11;;;;;;;0.90;0.90;;;;;;;-3.51;94.20;99990.78;5006872;28;20042;-87
2023/01/28 06:46:38;;;;;;;0.90;0.90;;;;;;;-3.49;93.81;99994.13;4993158;28;20132;-86
2023/01/28 06:49:05;;;;;;;1.00;1.00;;;;;;;-3.41;93.87;99992.63;5009595;28;20504;-88
2023/01/28 06:51:33;;;;;;;0.80;0.80;;;;;;;-3.36;93.71;100001.00;4994265;28;20050;-90
2023/01/28 06:54:00;;;;;;;0.65;0.65;;;;;;;-3.47;93.26;99999.25;5015006;28;20148;-87
2023/01/28 06:56:34;;;;;;;0.73;0.73;;;;;;;-3.43;93.41;100007.75;5014602;28;20104;-85
2023/01/28 06:59:01;;;;;;;1.00;1.00;;;;;;;-3.55;93.36;99994.63;5015180;28;20057;-87
2023/01/28 07:01:28;;;;;;;0.70;0.70;;;;;;;-3.45;93.44;100014.97;5013669;28;20173;-89
2023/01/28 07:03:56;;;;;;;0.90;0.90;;;;;;;-3.52;93.68;100006.72;4996904;28;20046;-87
2023/01/28 07:06:23;;;;;;;0.90;0.90;;;;;;;-3.52;93.83;100004.94;5015149;28;20053;-87
2023/01/28 07:08:50;;;;;;;1.00;1.00;;;;;;;-3.45;93.77;100012.31;5015050;28;20052;-88
2023/01/28 07:11:17;;;;;;;0.77;0.77;;;;;;;-3.39;94.08;100015.28;4998459;28;20056;-86
2023/01/28 07:13:46;;;;;;;0.80;0.80;;;;;;;-3.35;94.24;100005.31;5013815;28;20116;-87
2023/01/28 07:16:13;;;;;;;0.90;0.90;;;;;;;-3.35;94.13;100010.59;5004002;28;20054;-87
2023/01/28 07:18:40;;;;;;;0.77;0.77;;;;;;;-3.35;94.21;100013.22;5032062;28;20066;-88
2023/01/28 07:21:10;;;;;;;0.90;0.90;;;;;;;-3.36;93.98;100016.84;5022883;28;20521;-89
2023/01/28 07:23:38;;;;;;;0.80;0.80;;;;;;;-3.44;94.03;100019.28;5016581;28;20045;-87
2023/01/28 07:26:05;;;;;;;0.80;0.80;;;;;;;-3.56;93.83;100016.72;4982146;28;20434;-87
2023/01/28 07:28:33;;;;;;;0.80;0.80;;;;;;;-3.47;93.69;100016.91;5013818;28;20084;-87
2023/01/28 07:31:00;;;;;;;0.80;0.80;;;;;;;-3.42;93.74;100023.44;4997006;28;20383;-85
2023/01/28 07:33:27;;;;;;;0.80;0.80;;;;;;;-3.42;93.78;100019.97;5014619;28;20089;-86
2023/01/28 07:35:54;;;;;;;1.05;1.05;;;;;;;-3.41;93.64;100011.13;5015545;28;20081;-89
2023/01/28 07:38:21;;;;;;;0.85;0.85;;;;;;;-3.32;93.55;100020.88;5014016;28;20058;-88
2023/01/28 07:40:49;;;;;;;0.70;0.70;;;;;;;-3.42;93.64;99997.06;5013882;28;20513;-88
2023/01/28 07:43:16;;;;;;;0.80;0.80;;;;;;;-3.32;93.49;100008.53;5015831;28;20049;-87
2023/01/28 07:45:43;;;;;;;0.70;0.70;;;;;;;-3.30;93.45;100001.28;4980037;28;20050;-89
2023/01/28 07:48:14;;;;;;;0.80;0.80;;;;;;;-3.21;92.82;100025.25;5013117;28;20128;-88
2023/01/28 07:50:41;;;;;;;1.00;1.00;;;;;;;-3.24;92.51;100021.09;5014409;28;20046;-89
2023/01/28 07:53:10;;;;;;;0.93;0.93;;;;;;;-3.42;92.41;99998.88;4996875;28;20465;-88
2023/01/28 07:55:38;;;;;;;0.90;0.90;;;;;;;-3.35;92.20;100021.13;4996442;28;20133;-88
2023/01/28 07:58:08;;;;;;;0.60;0.60;;;;;;;-3.38;92.39;100005.56;5014512;28;20069;-87
2023/01/28 08:00:36;;;;;;;0.90;0.90;;;;;;;-3.24;92.66;100026.38;4996740;28;20046;-88
2023/01/28 08:03:12;;;;;;;1.00;1.00;;;;;;;-3.21;92.37;100019.97;4996054;28;20072;-88
2023/01/28 08:05:50;;;;;;;0.93;0.93;;;;;;;-3.34;91.90;100009.59;5013111;28;20544;-88
2023/01/28 08:08:17;;;;;;;0.80;0.80;;;;;;;-3.27;91.95;100022.19;5013657;28;20054;-85
2023/01/28 08:10:45;;;;;;;1.02;1.02;;;;;;;-3.24;92.28;100022.84;5001647;28;20148;-86
2023/01/28 08:13:13;;;;;;;0.80;0.80;;;;;;;-3.29;92.23;100023.28;5006996;28;20054;-85
2023/01/28 08:15:40;;;;;;;1.17;1.17;;;;;;;-3.23;92.14;100022.75;4993426;28;20089;-85
2023/01/28 08:18:12;;;;;;;0.82;0.82;;;;;;;-3.25;92.08;100018.56;5002329;28;20068;-84
2023/01/28 08:20:40;;;;;;;0.90;0.90;;;;;;;-3.19;91.63;100020.66;4989250;28;20125;-83
2023/01/28 08:23:10;;;;;;;0.75;0.75;;;;;;;-3.33;91.67;100001.56;5000067;28;20046;-83
2023/01/28 08:25:37;;;;;;;0.75;0.75;;;;;;;-3.26;91.29;100017.72;4999105;28;20714;-84
2023/01/28 08:28:05;;;;;;;1.10;1.10;;;;;;;-3.39;91.16;99996.81;5000247;28;20065;-85
2023/01/28 08:30:33;;;;;;;0.80;0.80;;;;;;;-3.34;90.67;100005.19;4972757;28;20043;-86
2023/01/28 08:33:00;;;;;;;0.80;0.80;;;;;;;-3.19;90.50;100028.59;4997350;28;20480;-88
2023/01/28 08:35:27;;;;;;;1.00;1.00;;;;;;;-3.23;90.55;100000.78;4985314;28;20056;-85
2023/01/28 08:37:55;;;;;;;0.80;0.80;;;;;;;-3.19;90.60;100021.53;5000244;28;20047;-84
2023/01/28 08:40:23;;;;;;;0.90;0.90;;;;;;;-3.17;90.07;100030.13;4987835;28;20177;-86
2023/01/28 08:42:51;;;;;;;1.00;1.00;;;;;;;-3.10;90.00;100027.81;4998526;28;20058;-84
2023/01/28 08:48:37;;;;;;;;;;;;;;;-3.10;89.42;100028.63;4999693;28;20140;-85
2023/01/28 08:51:04;;;;;;;0.80;0.80;;;;;;;-3.27;89.33;100021.31;4999564;28;19932;-84
2023/01/28 08:53:31;;;;;;;1.00;1.00;;;;;;;-3.33;89.03;100003.38;5004876;28;20097;-85
2023/01/28 08:55:58;;;;;;;1.00;1.00;;;;;;;-3.23;89.12;100001.63;5004300;28;20141;-85
2023/01/28 08:58:25;;;;;;;1.00;1.00;;;;;;;-3.16;88.58;100008.06;4990349;28;20060;-84
2023/01/28 09:00:52;;;;;;;0.80;0.80;;;;;;;-3.06;88.24;100010.75;4995647;28;20056;-84
2023/01/28 09:03:19;;;;;;;1.00;1.00;;;;;;;-2.98;87.99;100010.91;4989761;28;20046;-86
2023/01/28 09:05:48;;;;;;;0.98;0.98;;;;;;;-2.94;87.91;99998.25;4991788;28;20060;-83
2023/01/28 09:08:18;;;;;;;0.90;0.90;;;;;;;-2.87;87.69;100004.69;5006221;28;20054;-85
2023/01/28 09:10:45;;;;;;;0.77;0.77;;;;;;;-2.90;87.48;100003.16;4989229;28;20046;-83
2023/01/28 09:13:14;;;;;;;1.05;1.05;;;;;;;-2.83;87.28;99995.53;5006577;28;20061;-86
2023/01/28 09:15:41;;;;;;;0.82;0.82;;;;;;;-2.88;86.70;99992.47;4999506;28;20065;-86
2023/01/28 09:18:09;;;;;;;1.00;1.00;;;;;;;-2.89;86.43;99982.84;4987484;28;20142;-85
2023/01/28 09:20:38;;;;;;;1.00;1.00;;;;;;;-2.88;86.61;99987.16;5008979;28;20042;-86
2023/01/28 09:23:06;;;;;;;1.10;1.10;;;;;;;-2.83;86.57;99990.25;4997518;28;20064;-86
2023/01/28 09:25:34;;;;;;;0.90;0.90;;;;;;;-2.67;86.53;99992.38;5008234;28;20155;-84
2023/01/28 09:28:02;;;;;;;0.90;0.90;;;;;;;-2.60;85.68;99992.69;5001315;28;20081;-86
2023/01/28 09:30:36;;;;;;;0.85;0.85;;;;;;;-2.62;85.09;99993.63;5009386;28;20046;-88
2023/01/28 09:33:06;;;;;;;0.90;0.90;;;;;;;-2.60;85.01;99997.97;4992552;28;20067;-87
2023/01/28 09:35:34;;;;;;;0.90;0.90;;;;;;;-2.65;84.76;99999.19;4975725;28;20461;-88
2023/01/28 09:38:02;;;;;;;0.95;0.95;;;;;;;-2.69;84.47;100000.41;4991391;28;20050;-86
2023/01/28 09:44:56;;;;;;;0.90;0.90;;;;;;;-2.64;84.49;100002.66;4643846;23;10002313;-86
2023/01/28 09:47:51;;;;;;;1.00;1.00;;;;;;;-2.54;84.03;99984.19;4993643;28;20192;-89
2023/01/28 09:50:38;;;;;;;1.10;1.10;;;;;;;-2.37;83.81;99994.09;4991118;28;20887;-86
2023/01/28 09:53:17;;;;;;;0.90;0.90;;;;;;;-2.40;83.43;99995.22;4990435;28;20062;-86
2023/01/28 09:56:00;;;;;;;1.00;1.00;;;;;;;-2.40;83.22;99992.56;5006995;28;20078;-87
2023/01/28 09:58:28;;;;;;;0.88;0.88;;;;;;;-2.50;83.10;99981.13;5007340;28;20049;-85
2023/01/28 10:01:11;;;;;;;0.98;0.98;;;;;;;-2.46;83.18;99994.91;4961186;28;20061;-86
2023/01/28 10:04:16;;;;;;;1.00;1.00;;;;;;;-2.50;82.70;99975.84;4991040;28;20409;-86
2023/01/28 10:06:55;;;;;;;1.10;1.10;;;;;;;-2.45;82.40;99981.56;4977799;28;20050;-85
2023/01/28 10:09:37;;;;;;;1.00;1.00;;;;;;;-2.43;81.71;99974.34;4988974;28;20505;-88
2023/01/28 10:12:38;;;;;;;0.90;0.90;;;;;;;-2.32;81.90;99969.91;4986832;28;20423;-87
2023/01/28 10:15:27;;;;;;;0.90;0.90;;;;;;;-2.32;81.87;99967.25;4998542;28;20077;-87
2023/01/28 10:18:00;;;;;;;1.10;1.10;;;;;;;-2.37;81.74;99946.50;5005522;28;20046;-84
2023/01/28 10:20:48;;;;;;;0.98;0.98;;;;;;;-2.31;81.18;99967.09;5003363;28;20100;-84
2023/01/28 10:23:17;;;;;;;0.90;0.90;;;;;;;-2.15;81.03;99960.41;4968125;28;20089;-85
2023/01/28 10:25:47;;;;;;;0.93;0.93;;;;;;;-2.06;80.88;99951.66;4984833;28;20042;-86
2023/01/28 10:28:22;;;;;;;1.00;1.00;;;;;;;-2.07;80.27;99953.47;4960843;28;20047;-87
2023/01/28 10:30:50;;;;;;;0.98;0.98;;;;;;;-2.00;80.74;99957.22;4975059;28;20076;-88
2023/01/28 10:33:17;;;;;;;1.00;1.00;;;;;;;-1.91;80.08;99944.94;4988239;28;20092;-90
2023/01/28 10:35:44;;;;;;;0.98;0.98;;;;;;;-2.03;80.01;99954.84;5004813;28;20128;-86
2023/01/28 10:38:18;;;;;;;1.05;1.05;;;;;;;-2.07;80.36;99953.47;4970830;28;20145;-86
2023/01/28 10:40:46;;;;;;;1.20;1.10;;;;;;;-2.09;80.16;99946.66;4981201;28;20053;-87
2023/01/28 10:43:20;;;;;;;0.80;0.80;;;;;;;-2.12;80.16;99947.75;4988586;28;20105;-86
2023/01/28 10:46:16;;;;;;;0.88;0.88;;;;;;;-2.03;80.42;99946.06;5008744;28;20829;-86
2023/01/28 10:49:58;;;;;;;0.80;0.80;;;;;;;-2.07;80.25;99945.53;4980059;28;20048;-88
2023/01/28 10:52:18;;;;;;;0.70;0.70;;;;;;;-2.10;80.11;99942.31;4920740;29;20052;-89
2023/01/28 10:55:05;;;;;;;0.90;0.90;;;;;;;-2.13;80.46;99926.72;4926370;29;20064;-87
2023/01/28 10:57:40;;;;;;;1.00;1.00;;;;;;;-2.05;80.41;99921.56;4912870;29;20047;-85
2023/01/28 11:00:51;;;;;;;;;;;;;;;;;;;;;
2023/01/28 11:03:36;;;;;;;1.00;1.00;;;;;;;-2.01;79.68;99915.03;4923857;29;20056;-88
2023/01/28 11:06:23;;;;;;;1.05;1.05;;;;;;;-1.94;79.41;99926.72;4936431;29;20058;-89
2023/01/28 11:09:39;;;;;;;1.00;1.00;;;;;;;-1.89;79.64;99915.72;4928343;29;20130;-87
2023/01/28 11:12:27;;;;;;;1.10;1.10;;;;;;;-1.93;79.65;99907.22;4926124;29;20077;-88
2023/01/28 11:14:57;;;;;;;0.90;0.90;;;;;;;-1.98;79.81;99912.94;4925997;29;20055;-87
2023/01/28 11:17:34;;;;;;;0.90;0.90;;;;;;;-1.87;79.96;99919.88;4926060;29;20056;-86
2023/01/28 11:20:16;;;;;;;1.00;1.00;;;;;;;-1.93;80.44;99912.50;4907285;29;20102;-89
2023/01/28 11:22:46;;;;;;;1.10;1.10;;;;;;;-1.94;80.47;99920.59;4912454;29;20075;-87
2023/01/28 11:25:18;;;;;;;0.90;0.90;;;;;;;-2.03;80.40;99916.97;4932852;29;20185;-89
2023/01/28 11:27:47;;;;;;;0.73;0.73;;;;;;;-2.06;80.47;99915.44;4941027;28;20141;-88
2023/01/28 11:30:20;;;;;;;0.98;0.98;;;;;;;-2.15;80.18;99923.38;4976107;28;20047;-87
2023/01/28 11:33:01;;;;;;;0.82;0.82;;;;;;;-2.22;80.68;99929.25;4974089;28;20081;-89
2023/01/28 11:35:30;;;;;;;0.85;0.85;;;;;;;-2.32;80.81;99925.78;5006577;28;20053;-88
2023/01/28 11:37:58;;;;;;;0.85;0.85;;;;;;;-2.33;80.93;99921.47;4995028;28;20052;-89
2023/01/28 11:40:26;;;;;;;1.00;1.00;;;;;;;-2.24;81.19;99917.16;4997183;28;20144;-88
2023/01/28 11:42:58;;;;;;;1.00;1.00;;;;;;;-2.14;81.42;99914.50;4997342;28;20050;-88
2023/01/28 11:45:37;;;;;;;1.00;1.00;;;;;;;-2.12;81.44;99912.56;4997646;28;20112;-88
2023/01/28 11:48:22;;;;;;;1.00;1.00;;;;;;;-2.11;81.68;99904.47;5000527;28;20054;-89
2023/01/28 11:50:51;;;;;;;;;;;;;;;-2.17;81.49;99909.50;5003588;28;20069;-87
2023/01/28 11:53:24;;;;;;;0.80;0.80;;;;;;;-2.23;81.57;99908.22;5003535;28;20015;-89
2023/01/28 11:55:57;;;;;;;1.05;1.05;;;;;;;-2.20;81.86;99898.22;4970617;28;20108;-89
2023/01/28 11:58:31;;;;;;;0.88;0.88;;;;;;;-2.16;81.64;99904.03;5019400;28;20052;-89
2023/01/28 12:01:07;;;;;;;0.93;0.93;;;;;;;-2.15;81.66;99895.16;5017811;28;20431;-88
2023/01/28 12:03:48;;;;;;;1.10;1.10;;;;;;;-2.12;81.80;99888.75;5014727;28;20499;-89
2023/01/28 12:06:39;;;;;;;0.90;0.90;;;;;;;-2.20;81.86;99879.69;4999104;28;20398;-88
2023/01/28 12:09:12;;;;;;;0.80;0.80;;;;;;;-2.20;81.95;99882.34;5014649;28;20054;-86
2023/01/28 12:14:58;;;;;;;0.90;0.90;;;;;;;-2.27;82.75;99870.66;4997193;28;20533;-88
2023/01/28 12:17:25;;;;;;;0.90;0.90;;;;;;;-2.31;82.65;99869.25;5014024;28;20141;-88
2023/01/28 12:20:28;;;;;;;0.90;0.90;;;;;;;-2.35;82.94;99870.53;5014735;28;20050;-89
2023/01/28 12:23:11;;;;;;;1.00;1.00;;;;;;;-2.44;82.90;99876.66;4983549;28;20056;-89
2023/01/28 12:25:39;;;;;;;0.88;0.88;;;;;;;-2.50;83.33;99872.75;4962559;28;20054;-89
2023/01/28 12:28:37;;;;;;;1.00;1.00;;;;;;;-2.46;83.51;99878.59;4984764;28;20157;-90
2023/01/28 12:31:49;;;;;;;0.85;0.85;;;;;;;-2.45;83.61;99875.81;5008368;28;20110;-87
2023/01/28 12:34:49;;;;;;;1.02;1.02;;;;;;;-2.43;83.76;99867.72;4966520;28;20051;-87
2023/01/28 12:37:28;;;;;;;0.90;0.90;;;;;;;-2.41;83.47;99858.69;4906766;29;20053;-88
2023/01/28 12:40:38;;;;;;;0.90;0.90;;;;;;;-2.47;83.80;99861.06;4953114;29;20055;-89
2023/01/28 12:43:17;;;;;;;1.00;1.00;;;;;;;-2.58;83.88;99854.13;4937035;29;20551;-88
2023/01/28 12:45:48;;;;;;;0.90;0.90;;;;;;;-2.51;83.91;99854.38;4920974;29;20043;-86
2023/01/28 12:48:26;;;;;;;0.90;0.90;;;;;;;-2.52;83.63;99868.59;4920978;29;20145;-85